sensor_id;sensor_type;location;lat;lon;timestamp;temperature;humidity
17944;DHT22;9097;47.028;15.444;2023-05-17T00:01:22;12.50;99.90
17944;DHT22;9097;47.028;15.444;2023-05-17T00:04:24;12.60;99.90
17944;DHT22;9097;47.028;15.444;2023-05-17T00:07:27;12.60;99.90
17944;DHT22;9097;47.028;15.444;2023-05-17T00:10:31;12.60;99.90
17944;DHT22;9097;47.028;15.444;2023-05-17T00:13:33;12.70;99.90
17944;DHT22;9097;47.028;15.444;2023-05-17T00:16:35;12.60;99.90
17944;DHT22;9097;47.028;15.444;2023-05-17T00:19:38;12.60;99.90
17944;DHT22;9097;47.028;15.444;2023-05-17T00:22:40;12.60;99.90
17944;DHT22;9097;47.028;15.444;2023-05-17T00:25:46;12.60;99.90
17944;DHT22;9097;47.028;15.444;2023-05-17T00:28:49;12.70;99.90
17944;DHT22;9097;47.028;15.444;2023-05-17T00:31:51;12.80;99.90
17944;DHT22;9097;47.028;15.444;2023-05-17T00:34:53;12.60;99.90
17944;DHT22;9097;47.028;15.444;2023-05-17T00:37:56;12.60;99.90
17944;DHT22;9097;47.028;15.444;2023-05-17T00:40:59;12.70;99.90
17944;DHT22;9097;47.028;15.444;2023-05-17T00:44:02;12.70;99.90
17944;DHT22;9097;47.028;15.444;2023-05-17T00:47:04;12.80;99.90
17944;DHT22;9097;47.028;15.444;2023-05-17T00:50:07;12.70;99.90
17944;DHT22;9097;47.028;15.444;2023-05-17T00:53:11;12.70;99.90
17944;DHT22;9097;47.028;15.444;2023-05-17T00:56:17;12.70;99.90
17944;DHT22;9097;47.028;15.444;2023-05-17T00:59:20;12.70;99.90
17944;DHT22;9097;47.028;15.444;2023-05-17T01:02:24;12.70;99.90
17944;DHT22;9097;47.028;15.444;2023-05-17T01:05:26;12.80;99.90
17944;DHT22;9097;47.028;15.444;2023-05-17T01:08:29;12.60;99.90
17944;DHT22;9097;47.028;15.444;2023-05-17T01:11:41;12.70;99.90
17944;DHT22;9097;47.028;15.444;2023-05-17T01:14:55;12.70;99.90
17944;DHT22;9097;47.028;15.444;2023-05-17T01:18:06;12.60;99.90
17944;DHT22;9097;47.028;15.444;2023-05-17T01:21:21;12.60;99.90
17944;DHT22;9097;47.028;15.444;2023-05-17T01:24:37;12.60;99.90
17944;DHT22;9097;47.028;15.444;2023-05-17T01:27:48;12.60;99.90
17944;DHT22;9097;47.028;15.444;2023-05-17T01:30:52;12.60;99.90
17944;DHT22;9097;47.028;15.444;2023-05-17T01:33:55;12.70;99.90
17944;DHT22;9097;47.028;15.444;2023-05-17T01:36:58;12.70;99.90
17944;DHT22;9097;47.028;15.444;2023-05-17T01:40:01;12.70;99.90
17944;DHT22;9097;47.028;15.444;2023-05-17T01:43:13;12.60;99.90
17944;DHT22;9097;47.028;15.444;2023-05-17T01:46:25;12.70;99.90
17944;DHT22;9097;47.028;15.444;2023-05-17T01:49:30;12.70;99.90
17944;DHT22;9097;47.028;15.444;2023-05-17T01:52:37;12.70;99.90
17944;DHT22;9097;47.028;15.444;2023-05-17T01:55:50;12.80;99.90
17944;DHT22;9097;47.028;15.444;2023-05-17T01:58:56;12.70;99.90
17944;DHT22;9097;47.028;15.444;2023-05-17T02:02:00;12.90;99.90
17944;DHT22;9097;47.028;15.444;2023-05-17T02:05:08;12.90;99.90
17944;DHT22;9097;47.028;15.444;2023-05-17T02:08:11;12.80;99.90
17944;DHT22;9097;47.028;15.444;2023-05-17T02:50:55;13.30;99.90
17944;DHT22;9097;47.028;15.444;2023-05-17T02:53:57;13.20;99.90
17944;DHT22;9097;47.028;15.444;2023-05-17T02:57:00;13.20;99.90
17944;DHT22;9097;47.028;15.444;2023-05-17T03:00:05;13.20;99.90
17944;DHT22;9097;47.028;15.444;2023-05-17T03:03:09;13.10;99.90
17944;DHT22;9097;47.028;15.444;2023-05-17T03:06:11;13.20;99.90
17944;DHT22;9097;47.028;15.444;2023-05-17T03:09:13;13.20;99.90
17944;DHT22;9097;47.028;15.444;2023-05-17T03:12:16;13.10;99.90
17944;DHT22;9097;47.028;15.444;2023-05-17T03:15:20;13.10;99.90
17944;DHT22;9097;47.028;15.444;2023-05-17T03:18:23;13.10;99.90
17944;DHT22;9097;47.028;15.444;2023-05-17T03:21:25;13.10;99.90
17944;DHT22;9097;47.028;15.444;2023-05-17T03:24:27;13.20;99.90
17944;DHT22;9097;47.028;15.444;2023-05-17T03:27:30;13.10;99.90
17944;DHT22;9097;47.028;15.444;2023-05-17T03:30:34;13.10;99.90
17944;DHT22;9097;47.028;15.444;2023-05-17T03:33:36;13.10;99.90
17944;DHT22;9097;47.028;15.444;2023-05-17T03:36:39;13.20;99.90
17944;DHT22;9097;47.028;15.444;2023-05-17T03:39:41;13.10;99.90
17944;DHT22;9097;47.028;15.444;2023-05-17T03:42:43;13.10;99.90
17944;DHT22;9097;47.028;15.444;2023-05-17T03:45:47;13.20;99.90
17944;DHT22;9097;47.028;15.444;2023-05-17T03:48:49;13.20;99.90
17944;DHT22;9097;47.028;15.444;2023-05-17T03:51:52;13.10;99.90
17944;DHT22;9097;47.028;15.444;2023-05-17T03:54:54;13.30;99.90
17944;DHT22;9097;47.028;15.444;2023-05-17T03:57:56;13.30;99.90
17944;DHT22;9097;47.028;15.444;2023-05-17T04:01:00;13.30;99.90
17944;DHT22;9097;47.028;15.444;2023-05-17T04:04:03;13.30;99.90
17944;DHT22;9097;47.028;15.444;2023-05-17T04:46:46;13.50;99.90
17944;DHT22;9097;47.028;15.444;2023-05-17T04:49:50;13.50;99.90
17944;DHT22;9097;47.028;15.444;2023-05-17T04:52:52;13.60;99.90
17944;DHT22;9097;47.028;15.444;2023-05-17T04:55:54;13.60;99.90
17944;DHT22;9097;47.028;15.444;2023-05-17T04:58:57;13.50;99.90
17944;DHT22;9097;47.028;15.444;2023-05-17T05:02:01;13.60;99.90
17944;DHT22;9097;47.028;15.444;2023-05-17T05:05:03;13.50;99.90
17944;DHT22;9097;47.028;15.444;2023-05-17T05:08:08;13.60;99.90
17944;DHT22;9097;47.028;15.444;2023-05-17T05:11:10;13.60;99.90
17944;DHT22;9097;47.028;15.444;2023-05-17T05:20:19;13.80;99.90
17944;DHT22;9097;47.028;15.444;2023-05-17T05:23:21;13.80;99.90
17944;DHT22;9097;47.028;15.444;2023-05-17T05:26:24;13.80;99.90
17944;DHT22;9097;47.028;15.444;2023-05-17T05:29:26;13.90;99.90
17944;DHT22;9097;47.028;15.444;2023-05-17T05:32:30;13.90;99.90
17944;DHT22;9097;47.028;15.444;2023-05-17T05:35:32;14.00;99.90
17944;DHT22;9097;47.028;15.444;2023-05-17T05:38:34;14.00;99.90
17944;DHT22;9097;47.028;15.444;2023-05-17T05:41:37;14.00;99.90
17944;DHT22;9097;47.028;15.444;2023-05-17T05:44:40;14.10;99.90
17944;DHT22;9097;47.028;15.444;2023-05-17T05:47:46;14.00;99.90
17944;DHT22;9097;47.028;15.444;2023-05-17T05:50:48;14.10;99.90
17944;DHT22;9097;47.028;15.444;2023-05-17T05:53:51;14.10;99.90
17944;DHT22;9097;47.028;15.444;2023-05-17T05:56:53;14.00;99.90
17944;DHT22;9097;47.028;15.444;2023-05-17T05:59:55;14.10;99.90
17944;DHT22;9097;47.028;15.444;2023-05-17T06:02:59;14.10;99.90
17944;DHT22;9097;47.028;15.444;2023-05-17T06:06:01;14.10;99.90
17944;DHT22;9097;47.028;15.444;2023-05-17T06:09:04;14.10;99.90
17944;DHT22;9097;47.028;15.444;2023-05-17T06:12:07;14.10;99.90
17944;DHT22;9097;47.028;15.444;2023-05-17T06:15:10;14.10;99.90
17944;DHT22;9097;47.028;15.444;2023-05-17T06:18:14;14.10;99.90
17944;DHT22;9097;47.028;15.444;2023-05-17T06:21:16;14.10;99.90
17944;DHT22;9097;47.028;15.444;2023-05-17T06:24:19;14.10;99.90
17944;DHT22;9097;47.028;15.444;2023-05-17T06:27:21;14.10;99.90
17944;DHT22;9097;47.028;15.444;2023-05-17T06:30:24;14.10;99.90
17944;DHT22;9097;47.028;15.444;2023-05-17T06:33:28;14.10;99.90
17944;DHT22;9097;47.028;15.444;2023-05-17T06:36:31;14.10;99.90
17944;DHT22;9097;47.028;15.444;2023-05-17T06:39:34;14.20;99.90
17944;DHT22;9097;47.028;15.444;2023-05-17T06:42:36;14.20;99.90
17944;DHT22;9097;47.028;15.444;2023-05-17T06:45:38;14.20;99.90
17944;DHT22;9097;47.028;15.444;2023-05-17T06:51:45;14.20;99.90
17944;DHT22;9097;47.028;15.444;2023-05-17T06:54:48;14.30;99.90
17944;DHT22;9097;47.028;15.444;2023-05-17T07:00:53;14.40;99.90
17944;DHT22;9097;47.028;15.444;2023-05-17T07:16:08;14.40;99.90
17944;DHT22;9097;47.028;15.444;2023-05-17T07:19:12;14.40;99.90
17944;DHT22;9097;47.028;15.444;2023-05-17T07:22:15;14.50;99.90
17944;DHT22;9097;47.028;15.444;2023-05-17T07:25:17;14.40;99.90
17944;DHT22;9097;47.028;15.444;2023-05-17T07:28:21;14.40;99.90
17944;DHT22;9097;47.028;15.444;2023-05-17T07:31:23;14.50;99.90
17944;DHT22;9097;47.028;15.444;2023-05-17T07:34:28;14.50;99.90
17944;DHT22;9097;47.028;15.444;2023-05-17T07:37:31;14.50;99.90
17944;DHT22;9097;47.028;15.444;2023-05-17T07:40:33;14.40;99.90
17944;DHT22;9097;47.028;15.444;2023-05-17T07:43:35;14.50;99.90
17944;DHT22;9097;47.028;15.444;2023-05-17T07:46:38;14.50;99.90
17944;DHT22;9097;47.028;15.444;2023-05-17T07:49:42;14.50;99.90
17944;DHT22;9097;47.028;15.444;2023-05-17T07:52:44;14.60;99.90
17944;DHT22;9097;47.028;15.444;2023-05-17T07:55:47;14.70;99.90
17944;DHT22;9097;47.028;15.444;2023-05-17T07:58:49;14.70;99.90
17944;DHT22;9097;47.028;15.444;2023-05-17T08:01:52;14.80;99.90
17944;DHT22;9097;47.028;15.444;2023-05-17T08:07:58;14.80;99.90
17944;DHT22;9097;47.028;15.444;2023-05-17T08:11:01;14.80;99.90
17944;DHT22;9097;47.028;15.444;2023-05-17T08:14:03;15.00;99.90
17944;DHT22;9097;47.028;15.444;2023-05-17T08:17:06;14.80;99.90
17944;DHT22;9097;47.028;15.444;2023-05-17T08:20:11;14.80;99.90
17944;DHT22;9097;47.028;15.444;2023-05-17T08:23:13;14.80;99.90
17944;DHT22;9097;47.028;15.444;2023-05-17T08:26:16;14.90;99.90
17944;DHT22;9097;47.028;15.444;2023-05-17T08:29:19;14.90;99.90
17944;DHT22;9097;47.028;15.444;2023-05-17T08:32:21;14.80;99.90
17944;DHT22;9097;47.028;15.444;2023-05-17T08:35:29;14.80;99.90
17944;DHT22;9097;47.028;15.444;2023-05-17T08:38:32;14.90;99.90
17944;DHT22;9097;47.028;15.444;2023-05-17T08:41:35;14.90;99.90
17944;DHT22;9097;47.028;15.444;2023-05-17T08:44:38;14.80;99.90
17944;DHT22;9097;47.028;15.444;2023-05-17T08:47:42;14.80;99.90
17944;DHT22;9097;47.028;15.444;2023-05-17T08:50:49;14.80;99.90
17944;DHT22;9097;47.028;15.444;2023-05-17T08:53:52;14.70;99.90
17944;DHT22;9097;47.028;15.444;2023-05-17T08:56:58;14.60;99.90
17944;DHT22;9097;47.028;15.444;2023-05-17T09:00:02;14.50;99.90
17944;DHT22;9097;47.028;15.444;2023-05-17T09:03:07;14.50;99.90
17944;DHT22;9097;47.028;15.444;2023-05-17T09:06:12;14.60;99.90
17944;DHT22;9097;47.028;15.444;2023-05-17T09:09:14;14.60;99.90
17944;DHT22;9097;47.028;15.444;2023-05-17T09:12:19;14.60;99.90
17944;DHT22;9097;47.028;15.444;2023-05-17T09:15:22;14.70;99.90
17944;DHT22;9097;47.028;15.444;2023-05-17T09:18:30;14.60;99.90
17944;DHT22;9097;47.028;15.444;2023-05-17T09:21:35;14.60;99.90
17944;DHT22;9097;47.028;15.444;2023-05-17T09:24:39;14.50;99.90
17944;DHT22;9097;47.028;15.444;2023-05-17T09:27:42;14.40;99.90
17944;DHT22;9097;47.028;15.444;2023-05-17T09:30:46;14.50;99.90
17944;DHT22;9097;47.028;15.444;2023-05-17T09:33:49;14.60;99.90
17944;DHT22;9097;47.028;15.444;2023-05-17T09:36:53;14.50;99.90
17944;DHT22;9097;47.028;15.444;2023-05-17T09:39:55;14.50;99.90
17944;DHT22;9097;47.028;15.444;2023-05-17T09:42:58;14.50;99.90
17944;DHT22;9097;47.028;15.444;2023-05-17T09:46:01;14.50;99.90
17944;DHT22;9097;47.028;15.444;2023-05-17T09:49:03;14.40;99.90
17944;DHT22;9097;47.028;15.444;2023-05-17T09:52:08;14.40;99.90
17944;DHT22;9097;47.028;15.444;2023-05-17T09:55:11;14.40;99.90
17944;DHT22;9097;47.028;15.444;2023-05-17T09:58:15;14.40;99.90
17944;DHT22;9097;47.028;15.444;2023-05-17T10:01:18;14.40;99.90
17944;DHT22;9097;47.028;15.444;2023-05-17T10:04:23;14.40;99.90
17944;DHT22;9097;47.028;15.444;2023-05-17T10:07:28;14.50;99.90
17944;DHT22;9097;47.028;15.444;2023-05-17T10:10:32;14.60;99.90
17944;DHT22;9097;47.028;15.444;2023-05-17T10:13:43;14.60;99.90
17944;DHT22;9097;47.028;15.444;2023-05-17T10:16:49;14.70;99.90
17944;DHT22;9097;47.028;15.444;2023-05-17T10:19:52;14.60;99.90
17944;DHT22;9097;47.028;15.444;2023-05-17T10:22:57;14.60;99.90
17944;DHT22;9097;47.028;15.444;2023-05-17T10:26:03;14.60;99.90
17944;DHT22;9097;47.028;15.444;2023-05-17T10:29:06;14.60;99.90
17944;DHT22;9097;47.028;15.444;2023-05-17T10:32:12;14.60;99.90
17944;DHT22;9097;47.028;15.444;2023-05-17T10:35:16;14.60;99.90
17944;DHT22;9097;47.028;15.444;2023-05-17T10:38:21;14.60;99.90
17944;DHT22;9097;47.028;15.444;2023-05-17T10:41:27;14.70;99.90
17944;DHT22;9097;47.028;15.444;2023-05-17T10:44:32;14.60;99.90
17944;DHT22;9097;47.028;15.444;2023-05-17T10:47:38;14.70;99.90
17944;DHT22;9097;47.028;15.444;2023-05-17T10:50:45;14.70;99.90
17944;DHT22;9097;47.028;15.444;2023-05-17T10:54:04;14.70;99.90
17944;DHT22;9097;47.028;15.444;2023-05-17T10:57:18;14.60;99.90
17944;DHT22;9097;47.028;15.444;2023-05-17T11:00:23;14.60;99.90
17944;DHT22;9097;47.028;15.444;2023-05-17T11:03:29;14.40;99.90
17944;DHT22;9097;47.028;15.444;2023-05-17T11:06:35;14.50;99.90
17944;DHT22;9097;47.028;15.444;2023-05-17T11:09:39;14.50;99.90
17944;DHT22;9097;47.028;15.444;2023-05-17T11:12:43;14.60;99.90
17944;DHT22;9097;47.028;15.444;2023-05-17T11:16:02;14.60;99.90
17944;DHT22;9097;47.028;15.444;2023-05-17T11:19:07;14.60;99.90
17944;DHT22;9097;47.028;15.444;2023-05-17T11:22:10;14.60;99.90
17944;DHT22;9097;47.028;15.444;2023-05-17T11:25:15;14.70;99.90
17944;DHT22;9097;47.028;15.444;2023-05-17T11:28:20;14.70;99.90
17944;DHT22;9097;47.028;15.444;2023-05-17T11:31:29;14.70;99.90
17944;DHT22;9097;47.028;15.444;2023-05-17T11:34:32;14.70;99.90
17944;DHT22;9097;47.028;15.444;2023-05-17T11:37:35;14.60;99.90
17944;DHT22;9097;47.028;15.444;2023-05-17T11:40:39;14.60;99.90
17944;DHT22;9097;47.028;15.444;2023-05-17T11:43:44;14.50;99.90
17944;DHT22;9097;47.028;15.444;2023-05-17T11:46:49;14.50;99.90
17944;DHT22;9097;47.028;15.444;2023-05-17T11:49:53;14.40;99.90
17944;DHT22;9097;47.028;15.444;2023-05-17T11:52:56;14.50;99.90
17944;DHT22;9097;47.028;15.444;2023-05-17T11:56:02;14.50;99.90
17944;DHT22;9097;47.028;15.444;2023-05-17T11:59:05;14.50;99.90
17944;DHT22;9097;47.028;15.444;2023-05-17T12:02:07;14.50;99.90
17944;DHT22;9097;47.028;15.444;2023-05-17T12:05:10;14.50;99.90
17944;DHT22;9097;47.028;15.444;2023-05-17T12:08:14;14.50;99.90
17944;DHT22;9097;47.028;15.444;2023-05-17T12:11:18;14.50;99.90
17944;DHT22;9097;47.028;15.444;2023-05-17T12:14:21;14.50;99.90
17944;DHT22;9097;47.028;15.444;2023-05-17T12:17:32;14.50;99.90
17944;DHT22;9097;47.028;15.444;2023-05-17T12:20:36;14.50;99.90
17944;DHT22;9097;47.028;15.444;2023-05-17T12:23:40;14.60;99.90
17944;DHT22;9097;47.028;15.444;2023-05-17T12:26:45;14.60;99.90
17944;DHT22;9097;47.028;15.444;2023-05-17T12:29:48;14.60;99.90
17944;DHT22;9097;47.028;15.444;2023-05-17T12:32:50;14.50;99.90
17944;DHT22;9097;47.028;15.444;2023-05-17T12:35:53;14.40;99.90
17944;DHT22;9097;47.028;15.444;2023-05-17T12:38:56;14.40;99.90
17944;DHT22;9097;47.028;15.444;2023-05-17T12:42:00;14.30;99.90
17944;DHT22;9097;47.028;15.444;2023-05-17T12:45:03;14.30;99.90
17944;DHT22;9097;47.028;15.444;2023-05-17T12:48:06;14.40;99.90
17944;DHT22;9097;47.028;15.444;2023-05-17T12:51:10;14.40;99.90
17944;DHT22;9097;47.028;15.444;2023-05-17T12:54:26;14.40;99.90
17944;DHT22;9097;47.028;15.444;2023-05-17T12:57:30;14.30;99.90
17944;DHT22;9097;47.028;15.444;2023-05-17T13:00:33;14.30;99.90
17944;DHT22;9097;47.028;15.444;2023-05-17T13:03:35;14.30;99.90
17944;DHT22;9097;47.028;15.444;2023-05-17T13:06:45;14.10;99.90
17944;DHT22;9097;47.028;15.444;2023-05-17T13:09:48;13.90;99.90
17944;DHT22;9097;47.028;15.444;2023-05-17T13:12:58;13.90;99.90
17944;DHT22;9097;47.028;15.444;2023-05-17T13:16:01;13.90;99.90
17944;DHT22;9097;47.028;15.444;2023-05-17T13:19:11;13.80;99.90
17944;DHT22;9097;47.028;15.444;2023-05-17T13:22:15;13.80;99.90
17944;DHT22;9097;47.028;15.444;2023-05-17T13:25:17;14.30;99.90
17944;DHT22;9097;47.028;15.444;2023-05-17T13:28:22;13.80;99.90
17944;DHT22;9097;47.028;15.444;2023-05-17T13:31:25;13.80;99.90
17944;DHT22;9097;47.028;15.444;2023-05-17T13:34:27;13.70;99.90
17944;DHT22;9097;47.028;15.444;2023-05-17T13:37:29;13.70;99.90
17944;DHT22;9097;47.028;15.444;2023-05-17T13:40:32;13.50;99.90
17944;DHT22;9097;47.028;15.444;2023-05-17T13:43:36;13.60;99.90
17944;DHT22;9097;47.028;15.444;2023-05-17T13:46:38;13.60;99.90
17944;DHT22;9097;47.028;15.444;2023-05-17T13:49:40;13.50;99.90
17944;DHT22;9097;47.028;15.444;2023-05-17T13:52:43;13.50;99.90
17944;DHT22;9097;47.028;15.444;2023-05-17T13:55:45;13.40;99.90
17944;DHT22;9097;47.028;15.444;2023-05-17T13:58:49;13.40;99.90
17944;DHT22;9097;47.028;15.444;2023-05-17T14:01:51;13.30;99.90
17944;DHT22;9097;47.028;15.444;2023-05-17T14:41:29;13.00;99.90
17944;DHT22;9097;47.028;15.444;2023-05-17T14:44:33;12.80;99.90
17944;DHT22;9097;47.028;15.444;2023-05-17T14:47:39;12.90;99.90
17944;DHT22;9097;47.028;15.444;2023-05-17T14:50:41;12.90;99.90
17944;DHT22;9097;47.028;15.444;2023-05-17T14:53:44;12.90;99.90
17944;DHT22;9097;47.028;15.444;2023-05-17T14:56:46;13.00;99.90
17944;DHT22;9097;47.028;15.444;2023-05-17T14:59:50;13.00;99.90
17944;DHT22;9097;47.028;15.444;2023-05-17T15:02:53;13.10;99.90
17944;DHT22;9097;47.028;15.444;2023-05-17T15:05:55;13.00;99.90
17944;DHT22;9097;47.028;15.444;2023-05-17T15:08:58;13.00;99.90
17944;DHT22;9097;47.028;15.444;2023-05-17T15:12:02;13.00;99.90
17944;DHT22;9097;47.028;15.444;2023-05-17T15:15:08;13.10;99.90
17944;DHT22;9097;47.028;15.444;2023-05-17T15:18:11;12.90;99.90
17944;DHT22;9097;47.028;15.444;2023-05-17T15:21:13;13.00;99.90
17944;DHT22;9097;47.028;15.444;2023-05-17T15:24:17;13.00;99.90
17944;DHT22;9097;47.028;15.444;2023-05-17T15:27:19;13.10;99.90
17944;DHT22;9097;47.028;15.444;2023-05-17T15:30:23;13.10;99.90
17944;DHT22;9097;47.028;15.444;2023-05-17T15:33:27;13.00;99.90
17944;DHT22;9097;47.028;15.444;2023-05-17T15:36:31;13.20;99.90
17944;DHT22;9097;47.028;15.444;2023-05-17T15:39:34;13.20;99.90
17944;DHT22;9097;47.028;15.444;2023-05-17T15:42:37;13.10;99.90
17944;DHT22;9097;47.028;15.444;2023-05-17T15:45:40;13.10;99.90
17944;DHT22;9097;47.028;15.444;2023-05-17T15:48:43;13.00;99.90
17944;DHT22;9097;47.028;15.444;2023-05-17T15:51:45;12.80;99.90
17944;DHT22;9097;47.028;15.444;2023-05-17T15:54:47;12.80;99.90
17944;DHT22;9097;47.028;15.444;2023-05-17T15:57:50;12.70;99.90
17944;DHT22;9097;47.028;15.444;2023-05-17T16:00:54;12.60;99.90
17944;DHT22;9097;47.028;15.444;2023-05-17T16:03:57;12.70;99.90
17944;DHT22;9097;47.028;15.444;2023-05-17T16:06:59;12.60;99.90
17944;DHT22;9097;47.028;15.444;2023-05-17T16:10:02;12.80;99.90
17944;DHT22;9097;47.028;15.444;2023-05-17T16:13:04;12.80;99.90
17944;DHT22;9097;47.028;15.444;2023-05-17T16:16:08;12.60;99.90
17944;DHT22;9097;47.028;15.444;2023-05-17T16:19:13;12.70;99.90
